sensor_id;sensor_type;location;lat;lon;timestamp;P1;durP1;ratioP1;P2;durP2;ratioP2
21804;SDS011;11064;47.102;15.452;2023-02-01T05:03:34;3.70;;;2.30;;
21804;SDS011;11064;47.102;15.452;2023-02-01T05:06:00;6.20;;;2.22;;
21804;SDS011;11064;47.102;15.452;2023-02-01T05:08:29;4.65;;;2.05;;
21804;SDS011;11064;47.102;15.452;2023-02-01T05:10:55;4.65;;;2.58;;
21804;SDS011;11064;47.102;15.452;2023-02-01T05:13:20;6.13;;;2.63;;
21804;SDS011;11064;47.102;15.452;2023-02-01T05:16:05;3.30;;;2.28;;
21804;SDS011;11064;47.102;15.452;2023-02-01T05:18:31;4.07;;;2.20;;
21804;SDS011;11064;47.102;15.452;2023-02-01T05:20:57;3.83;;;2.00;;
21804;SDS011;11064;47.102;15.452;2023-02-01T05:23:23;3.38;;;2.22;;
21804;SDS011;11064;47.102;15.452;2023-02-01T05:25:49;3.47;;;2.28;;
21804;SDS011;11064;47.102;15.452;2023-02-01T05:28:15;4.22;;;2.13;;
21804;SDS011;11064;47.102;15.452;2023-02-01T05:30:41;5.18;;;2.30;;
21804;SDS011;11064;47.102;15.452;2023-02-01T05:33:07;4.20;;;2.17;;
21804;SDS011;11064;47.102;15.452;2023-02-01T05:35:33;4.05;;;2.30;;
21804;SDS011;11064;47.102;15.452;2023-02-01T05:37:58;4.68;;;2.30;;
21804;SDS011;11064;47.102;15.452;2023-02-01T05:40:24;3.00;;;1.85;;
21804;SDS011;11064;47.102;15.452;2023-02-01T05:42:50;4.50;;;2.13;;
21804;SDS011;11064;47.102;15.452;2023-02-01T05:45:16;3.55;;;2.17;;
21804;SDS011;11064;47.102;15.452;2023-02-01T05:47:42;2.53;;;1.95;;
21804;SDS011;11064;47.102;15.452;2023-02-01T05:50:08;3.75;;;2.20;;
21804;SDS011;11064;47.102;15.452;2023-02-01T05:52:34;4.63;;;2.33;;
21804;SDS011;11064;47.102;15.452;2023-02-01T05:55:00;6.13;;;2.38;;
21804;SDS011;11064;47.102;15.452;2023-02-01T05:57:26;3.83;;;1.92;;
21804;SDS011;11064;47.102;15.452;2023-02-01T05:59:51;4.63;;;2.20;;
21804;SDS011;11064;47.102;15.452;2023-02-01T06:02:17;4.45;;;2.30;;
21804;SDS011;11064;47.102;15.452;2023-02-01T06:04:46;5.97;;;2.63;;
21804;SDS011;11064;47.102;15.452;2023-02-01T06:07:12;3.60;;;2.30;;
21804;SDS011;11064;47.102;15.452;2023-02-01T06:09:38;5.57;;;2.70;;
21804;SDS011;11064;47.102;15.452;2023-02-01T06:12:04;2.90;;;2.17;;
21804;SDS011;11064;47.102;15.452;2023-02-01T06:14:30;4.30;;;2.10;;
21804;SDS011;11064;47.102;15.452;2023-02-01T06:16:56;3.95;;;2.30;;
21804;SDS011;11064;47.102;15.452;2023-02-01T06:19:22;4.55;;;2.17;;
21804;SDS011;11064;47.102;15.452;2023-02-01T06:21:49;3.00;;;1.80;;
21804;SDS011;11064;47.102;15.452;2023-02-01T06:24:15;4.50;;;2.10;;
21804;SDS011;11064;47.102;15.452;2023-02-01T06:26:41;3.42;;;1.83;;
21804;SDS011;11064;47.102;15.452;2023-02-01T06:29:07;5.80;;;2.00;;
21804;SDS011;11064;47.102;15.452;2023-02-01T06:31:35;3.42;;;2.00;;
21804;SDS011;11064;47.102;15.452;2023-02-01T06:34:00;5.30;;;1.95;;
21804;SDS011;11064;47.102;15.452;2023-02-01T06:36:28;3.83;;;1.92;;
21804;SDS011;11064;47.102;15.452;2023-02-01T06:38:55;3.45;;;1.55;;
21804;SDS011;11064;47.102;15.452;2023-02-01T06:41:22;3.20;;;1.80;;
21804;SDS011;11064;47.102;15.452;2023-02-01T06:43:48;2.83;;;1.80;;
21804;SDS011;11064;47.102;15.452;2023-02-01T06:46:14;5.00;;;2.05;;
21804;SDS011;11064;47.102;15.452;2023-02-01T06:48:40;3.05;;;1.77;;
21804;SDS011;11064;47.102;15.452;2023-02-01T06:51:14;2.50;;;1.70;;
21804;SDS011;11064;47.102;15.452;2023-02-01T06:53:48;2.90;;;1.73;;
21804;SDS011;11064;47.102;15.452;2023-02-01T06:56:15;2.53;;;1.60;;
21804;SDS011;11064;47.102;15.452;2023-02-01T06:58:41;8.73;;;2.05;;
21804;SDS011;11064;47.102;15.452;2023-02-01T07:01:07;4.63;;;2.20;;
21804;SDS011;11064;47.102;15.452;2023-02-01T07:03:34;5.68;;;2.28;;
21804;SDS011;11064;47.102;15.452;2023-02-01T07:06:00;2.85;;;2.10;;
21804;SDS011;11064;47.102;15.452;2023-02-01T07:08:27;4.18;;;2.10;;
21804;SDS011;11064;47.102;15.452;2023-02-01T07:10:53;3.90;;;1.73;;
21804;SDS011;11064;47.102;15.452;2023-02-01T07:13:19;8.63;;;2.67;;
21804;SDS011;11064;47.102;15.452;2023-02-01T07:15:45;2.65;;;1.73;;
21804;SDS011;11064;47.102;15.452;2023-02-01T07:18:14;4.18;;;2.30;;
21804;SDS011;11064;47.102;15.452;2023-02-01T07:20:40;2.25;;;1.92;;
21804;SDS011;11064;47.102;15.452;2023-02-01T07:23:07;3.83;;;2.20;;
21804;SDS011;11064;47.102;15.452;2023-02-01T07:25:35;3.63;;;1.80;;
21804;SDS011;11064;47.102;15.452;2023-02-01T07:28:00;4.90;;;2.00;;
21804;SDS011;11064;47.102;15.452;2023-02-01T07:30:26;3.65;;;2.20;;
21804;SDS011;11064;47.102;15.452;2023-02-01T07:32:52;2.90;;;1.92;;
21804;SDS011;11064;47.102;15.452;2023-02-01T07:35:18;5.28;;;2.38;;
21804;SDS011;11064;47.102;15.452;2023-02-01T07:37:43;6.15;;;4.07;;
21804;SDS011;11064;47.102;15.452;2023-02-01T07:40:10;4.03;;;2.40;;
21804;SDS011;11064;47.102;15.452;2023-02-01T07:42:36;3.63;;;2.20;;
21804;SDS011;11064;47.102;15.452;2023-02-01T07:45:02;4.47;;;2.50;;
21804;SDS011;11064;47.102;15.452;2023-02-01T07:47:29;4.18;;;2.58;;
21804;SDS011;11064;47.102;15.452;2023-02-01T07:49:55;5.05;;;2.70;;
21804;SDS011;11064;47.102;15.452;2023-02-01T07:52:20;5.30;;;2.58;;
21804;SDS011;11064;47.102;15.452;2023-02-01T07:54:46;3.85;;;1.98;;
21804;SDS011;11064;47.102;15.452;2023-02-01T07:57:12;4.85;;;2.45;;
21804;SDS011;11064;47.102;15.452;2023-02-01T07:59:38;4.32;;;2.47;;
21804;SDS011;11064;47.102;15.452;2023-02-01T08:02:24;2.88;;;1.90;;
21804;SDS011;11064;47.102;15.452;2023-02-01T08:04:50;4.53;;;2.63;;
21804;SDS011;11064;47.102;15.452;2023-02-01T08:07:15;8.15;;;3.90;;
21804;SDS011;11064;47.102;15.452;2023-02-01T08:09:41;4.88;;;2.70;;
21804;SDS011;11064;47.102;15.452;2023-02-01T08:12:07;2.95;;;1.80;;
21804;SDS011;11064;47.102;15.452;2023-02-01T08:14:33;6.15;;;3.40;;
21804;SDS011;11064;47.102;15.452;2023-02-01T08:16:59;7.50;;;3.20;;
21804;SDS011;11064;47.102;15.452;2023-02-01T08:19:24;4.13;;;2.55;;
21804;SDS011;11064;47.102;15.452;2023-02-01T08:21:50;4.90;;;2.25;;
21804;SDS011;11064;47.102;15.452;2023-02-01T08:24:16;4.53;;;2.55;;
21804;SDS011;11064;47.102;15.452;2023-02-01T08:26:42;4.30;;;2.38;;
21804;SDS011;11064;47.102;15.452;2023-02-01T08:29:08;4.93;;;2.40;;
21804;SDS011;11064;47.102;15.452;2023-02-01T08:31:36;3.80;;;2.30;;
21804;SDS011;11064;47.102;15.452;2023-02-01T08:34:05;5.00;;;2.33;;
21804;SDS011;11064;47.102;15.452;2023-02-01T08:36:33;2.30;;;1.55;;
21804;SDS011;11064;47.102;15.452;2023-02-01T08:38:59;3.83;;;2.25;;
21804;SDS011;11064;47.102;15.452;2023-02-01T08:41:28;3.35;;;1.80;;
21804;SDS011;11064;47.102;15.452;2023-02-01T08:43:55;1.98;;;1.10;;
21804;SDS011;11064;47.102;15.452;2023-02-01T08:46:22;4.22;;;2.40;;
21804;SDS011;11064;47.102;15.452;2023-02-01T08:48:48;2.72;;;1.75;;
21804;SDS011;11064;47.102;15.452;2023-02-01T08:51:15;2.55;;;1.35;;
21804;SDS011;11064;47.102;15.452;2023-02-01T08:53:43;4.63;;;2.53;;
21804;SDS011;11064;47.102;15.452;2023-02-01T08:56:10;2.10;;;1.85;;
21804;SDS011;11064;47.102;15.452;2023-02-01T08:58:37;2.92;;;1.40;;
21804;SDS011;11064;47.102;15.452;2023-02-01T09:01:06;2.00;;;1.20;;
21804;SDS011;11064;47.102;15.452;2023-02-01T09:03:35;1.67;;;1.30;;
21804;SDS011;11064;47.102;15.452;2023-02-01T09:06:04;2.13;;;1.25;;
21804;SDS011;11064;47.102;15.452;2023-02-01T09:08:32;1.63;;;1.20;;
21804;SDS011;11064;47.102;15.452;2023-02-01T09:11:02;1.77;;;1.10;;
21804;SDS011;11064;47.102;15.452;2023-02-01T09:13:29;2.15;;;1.00;;
21804;SDS011;11064;47.102;15.452;2023-02-01T09:15:55;1.80;;;0.70;;
21804;SDS011;11064;47.102;15.452;2023-02-01T09:18:22;2.47;;;0.85;;
21804;SDS011;11064;47.102;15.452;2023-02-01T09:20:47;2.58;;;1.30;;
21804;SDS011;11064;47.102;15.452;2023-02-01T09:23:13;3.20;;;1.75;;
21804;SDS011;11064;47.102;15.452;2023-02-01T09:25:39;1.58;;;0.95;;
21804;SDS011;11064;47.102;15.452;2023-02-01T09:28:05;1.65;;;1.00;;
21804;SDS011;11064;47.102;15.452;2023-02-01T09:30:33;2.42;;;1.30;;
21804;SDS011;11064;47.102;15.452;2023-02-01T09:32:59;2.58;;;1.60;;
21804;SDS011;11064;47.102;15.452;2023-02-01T09:35:24;3.25;;;1.98;;
21804;SDS011;11064;47.102;15.452;2023-02-01T09:37:52;2.20;;;1.35;;
21804;SDS011;11064;47.102;15.452;2023-02-01T09:40:18;1.77;;;1.20;;
21804;SDS011;11064;47.102;15.452;2023-02-01T09:43:09;2.40;;;1.10;;
21804;SDS011;11064;47.102;15.452;2023-02-01T09:45:59;3.53;;;2.40;;
21804;SDS011;11064;47.102;15.452;2023-02-01T09:48:38;2.13;;;1.50;;
21804;SDS011;11064;47.102;15.452;2023-02-01T09:51:11;1.73;;;1.30;;
21804;SDS011;11064;47.102;15.452;2023-02-01T09:54:29;2.60;;;1.38;;
21804;SDS011;11064;47.102;15.452;2023-02-01T09:56:35;2.83;;;1.63;;
21804;SDS011;11064;47.102;15.452;2023-02-01T10:01:59;2.55;;;1.60;;
21804;SDS011;11064;47.102;15.452;2023-02-01T10:04:27;5.03;;;2.72;;
21804;SDS011;11064;47.102;15.452;2023-02-01T10:06:59;4.07;;;2.70;;
21804;SDS011;11064;47.102;15.452;2023-02-01T10:09:42;10.32;;;3.90;;
21804;SDS011;11064;47.102;15.452;2023-02-01T10:15:15;4.15;;;2.72;;
21804;SDS011;11064;47.102;15.452;2023-02-01T10:18:19;9.73;;;3.58;;
21804;SDS011;11064;47.102;15.452;2023-02-01T10:21:15;12.07;;;3.50;;
21804;SDS011;11064;47.102;15.452;2023-02-01T10:23:52;7.15;;;3.45;;
21804;SDS011;11064;47.102;15.452;2023-02-01T10:26:24;12.57;;;3.63;;
21804;SDS011;11064;47.102;15.452;2023-02-01T10:28:54;12.85;;;3.10;;
21804;SDS011;11064;47.102;15.452;2023-02-01T10:31:45;9.40;;;3.53;;
21804;SDS011;11064;47.102;15.452;2023-02-01T10:34:32;9.60;;;3.30;;
21804;SDS011;11064;47.102;15.452;2023-02-01T10:37:00;7.53;;;3.13;;
21804;SDS011;11064;47.102;15.452;2023-02-01T10:39:35;10.38;;;3.88;;
21804;SDS011;11064;47.102;15.452;2023-02-01T10:42:02;11.52;;;4.13;;
21804;SDS011;11064;47.102;15.452;2023-02-01T10:44:28;9.93;;;4.40;;
21804;SDS011;11064;47.102;15.452;2023-02-01T10:46:57;11.57;;;4.18;;
21804;SDS011;11064;47.102;15.452;2023-02-01T10:49:29;11.68;;;4.30;;
21804;SDS011;11064;47.102;15.452;2023-02-01T10:54:36;17.63;;;4.68;;
21804;SDS011;11064;47.102;15.452;2023-02-01T10:57:11;11.95;;;4.10;;
21804;SDS011;11064;47.102;15.452;2023-02-01T10:59:50;9.63;;;4.20;;
21804;SDS011;11064;47.102;15.452;2023-02-01T11:02:31;9.25;;;3.25;;
21804;SDS011;11064;47.102;15.452;2023-02-01T11:05:05;4.65;;;2.85;;
21804;SDS011;11064;47.102;15.452;2023-02-01T11:07:35;8.85;;;3.10;;
21804;SDS011;11064;47.102;15.452;2023-02-01T11:10:02;5.40;;;2.95;;
21804;SDS011;11064;47.102;15.452;2023-02-01T11:12:30;9.10;;;2.67;;
21804;SDS011;11064;47.102;15.452;2023-02-01T11:15:15;3.47;;;1.77;;
21804;SDS011;11064;47.102;15.452;2023-02-01T11:17:49;4.22;;;2.10;;
21804;SDS011;11064;47.102;15.452;2023-02-01T11:20:39;3.17;;;1.90;;
21804;SDS011;11064;47.102;15.452;2023-02-01T11:23:17;2.88;;;1.83;;
21804;SDS011;11064;47.102;15.452;2023-02-01T11:25:51;2.28;;;1.65;;
21804;SDS011;11064;47.102;15.452;2023-02-01T11:28:23;10.90;;;2.28;;
21804;SDS011;11064;47.102;15.452;2023-02-01T11:30:53;8.25;;;2.20;;
21804;SDS011;11064;47.102;15.452;2023-02-01T11:33:23;2.95;;;1.70;;
21804;SDS011;11064;47.102;15.452;2023-02-01T11:35:55;2.95;;;1.60;;
21804;SDS011;11064;47.102;15.452;2023-02-01T11:38:30;8.88;;;2.00;;
21804;SDS011;11064;47.102;15.452;2023-02-01T11:41:13;4.63;;;1.75;;
21804;SDS011;11064;47.102;15.452;2023-02-01T11:44:01;4.07;;;1.80;;
21804;SDS011;11064;47.102;15.452;2023-02-01T11:46:41;3.63;;;2.08;;
21804;SDS011;11064;47.102;15.452;2023-02-01T11:49:20;3.63;;;1.95;;
21804;SDS011;11064;47.102;15.452;2023-02-01T12:05:26;3.75;;;1.65;;
21804;SDS011;11064;47.102;15.452;2023-02-01T12:08:30;1.92;;;1.23;;
21804;SDS011;11064;47.102;15.452;2023-02-01T12:41:47;0.40;;;0.40;;
21804;SDS011;11064;47.102;15.452;2023-02-01T12:44:31;0.30;;;0.30;;
21804;SDS011;11064;47.102;15.452;2023-02-01T12:52:49;0.50;;;0.50;;
21804;SDS011;11064;47.102;15.452;2023-02-01T12:58:08;0.95;;;0.40;;
21804;SDS011;11064;47.102;15.452;2023-02-01T13:00:55;0.68;;;0.50;;
21804;SDS011;11064;47.102;15.452;2023-02-01T13:06:17;0.40;;;0.40;;
21804;SDS011;11064;47.102;15.452;2023-02-01T13:11:42;1.15;;;0.50;;
21804;SDS011;11064;47.102;15.452;2023-02-01T13:17:39;0.40;;;0.40;;
21804;SDS011;11064;47.102;15.452;2023-02-01T13:24:56;1.42;;;0.32;;
21804;SDS011;11064;47.102;15.452;2023-02-01T13:27:28;0.85;;;0.50;;
21804;SDS011;11064;47.102;15.452;2023-02-01T13:29:59;0.50;;;0.50;;
21804;SDS011;11064;47.102;15.452;2023-02-01T13:43:42;0.85;;;0.50;;
21804;SDS011;11064;47.102;15.452;2023-02-01T13:48:41;1.05;;;0.50;;
21804;SDS011;11064;47.102;15.452;2023-02-01T13:51:13;0.73;;;0.40;;
21804;SDS011;11064;47.102;15.452;2023-02-01T13:53:44;2.13;;;0.52;;
21804;SDS011;11064;47.102;15.452;2023-02-01T13:56:14;1.70;;;0.40;;
21804;SDS011;11064;47.102;15.452;2023-02-01T13:58:45;0.60;;;0.47;;
21804;SDS011;11064;47.102;15.452;2023-02-01T14:15:13;1.15;;;0.43;;
21804;SDS011;11064;47.102;15.452;2023-02-01T14:19:27;0.50;;;0.50;;
21804;SDS011;11064;47.102;15.452;2023-02-01T14:21:55;1.88;;;0.60;;
21804;SDS011;11064;47.102;15.452;2023-02-01T14:24:31;0.73;;;0.47;;
21804;SDS011;11064;47.102;15.452;2023-02-01T14:27:02;0.40;;;0.40;;
21804;SDS011;11064;47.102;15.452;2023-02-01T14:30:01;3.30;;;0.50;;
21804;SDS011;11064;47.102;15.452;2023-02-01T14:35:07;1.23;;;0.40;;
21804;SDS011;11064;47.102;15.452;2023-02-01T14:37:43;0.50;;;0.50;;
21804;SDS011;11064;47.102;15.452;2023-02-01T14:47:47;2.72;;;0.77;;
21804;SDS011;11064;47.102;15.452;2023-02-01T14:50:25;0.52;;;0.50;;
21804;SDS011;11064;47.102;15.452;2023-02-01T15:03:56;0.93;;;0.50;;
21804;SDS011;11064;47.102;15.452;2023-02-01T15:06:25;3.78;;;0.52;;
21804;SDS011;11064;47.102;15.452;2023-02-01T15:09:03;0.55;;;0.50;;
21804;SDS011;11064;47.102;15.452;2023-02-01T15:14:19;2.55;;;0.60;;
21804;SDS011;11064;47.102;15.452;2023-02-01T15:16:45;0.88;;;0.60;;
21804;SDS011;11064;47.102;15.452;2023-02-01T15:19:18;0.95;;;0.60;;
21804;SDS011;11064;47.102;15.452;2023-02-01T15:21:49;0.75;;;0.70;;
21804;SDS011;11064;47.102;15.452;2023-02-01T15:24:26;1.67;;;0.50;;
21804;SDS011;11064;47.102;15.452;2023-02-01T15:26:58;0.90;;;0.50;;
21804;SDS011;11064;47.102;15.452;2023-02-01T15:29:29;2.03;;;0.50;;
21804;SDS011;11064;47.102;15.452;2023-02-01T15:31:58;0.80;;;0.60;;
21804;SDS011;11064;47.102;15.452;2023-02-01T15:34:43;1.63;;;0.60;;
21804;SDS011;11064;47.102;15.452;2023-02-01T15:37:14;1.13;;;0.60;;
21804;SDS011;11064;47.102;15.452;2023-02-01T15:42:46;0.77;;;0.60;;
21804;SDS011;11064;47.102;15.452;2023-02-01T15:45:22;0.68;;;0.40;;
21804;SDS011;11064;47.102;15.452;2023-02-01T15:47:53;1.08;;;0.73;;
21804;SDS011;11064;47.102;15.452;2023-02-01T15:50:21;1.35;;;0.60;;
21804;SDS011;11064;47.102;15.452;2023-02-01T15:52:49;0.77;;;0.70;;
21804;SDS011;11064;47.102;15.452;2023-02-01T15:57:49;1.05;;;0.60;;
21804;SDS011;11064;47.102;15.452;2023-02-01T16:00:30;0.57;;;0.50;;
21804;SDS011;11064;47.102;15.452;2023-02-01T16:03:05;0.70;;;0.60;;
21804;SDS011;11064;47.102;15.452;2023-02-01T16:05:53;1.00;;;0.63;;
21804;SDS011;11064;47.102;15.452;2023-02-01T16:08:23;0.65;;;0.55;;
21804;SDS011;11064;47.102;15.452;2023-02-01T16:10:51;1.85;;;0.70;;
21804;SDS011;11064;47.102;15.452;2023-02-01T16:13:19;0.85;;;0.70;;
21804;SDS011;11064;47.102;15.452;2023-02-01T16:15:47;1.15;;;0.60;;
21804;SDS011;11064;47.102;15.452;2023-02-01T16:18:14;1.38;;;0.73;;
21804;SDS011;11064;47.102;15.452;2023-02-01T16:20:41;1.67;;;0.68;;
21804;SDS011;11064;47.102;15.452;2023-02-01T16:23:08;1.05;;;0.70;;
21804;SDS011;11064;47.102;15.452;2023-02-01T16:25:36;0.82;;;0.70;;
21804;SDS011;11064;47.102;15.452;2023-02-01T16:28:03;2.58;;;0.75;;
21804;SDS011;11064;47.102;15.452;2023-02-01T16:30:33;0.65;;;0.60;;
21804;SDS011;11064;47.102;15.452;2023-02-01T16:33:00;1.65;;;0.70;;
21804;SDS011;11064;47.102;15.452;2023-02-01T16:35:32;1.55;;;0.65;;
21804;SDS011;11064;47.102;15.452;2023-02-01T16:38:02;1.33;;;0.60;;
21804;SDS011;11064;47.102;15.452;2023-02-01T16:40:33;0.80;;;0.60;;
21804;SDS011;11064;47.102;15.452;2023-02-01T16:42:59;1.17;;;0.60;;
21804;SDS011;11064;47.102;15.452;2023-02-01T16:45:26;0.98;;;0.70;;
21804;SDS011;11064;47.102;15.452;2023-02-01T16:47:53;2.60;;;0.80;;
21804;SDS011;11064;47.102;15.452;2023-02-01T16:50:22;1.13;;;0.80;;
21804;SDS011;11064;47.102;15.452;2023-02-01T16:52:50;2.05;;;0.80;;
21804;SDS011;11064;47.102;15.452;2023-02-01T16:55:18;1.60;;;0.82;;
21804;SDS011;11064;47.102;15.452;2023-02-01T16:57:46;0.90;;;0.80;;
21804;SDS011;11064;47.102;15.452;2023-02-01T17:00:13;0.80;;;0.70;;
21804;SDS011;11064;47.102;15.452;2023-02-01T17:02:41;1.15;;;0.80;;
21804;SDS011;11064;47.102;15.452;2023-02-01T17:05:07;0.70;;;0.70;;
21804;SDS011;11064;47.102;15.452;2023-02-01T17:07:35;1.67;;;0.70;;
21804;SDS011;11064;47.102;15.452;2023-02-01T17:10:03;1.10;;;0.60;;
21804;SDS011;11064;47.102;15.452;2023-02-01T17:12:31;1.10;;;0.82;;
21804;SDS011;11064;47.102;15.452;2023-02-01T17:14:58;2.35;;;0.98;;
21804;SDS011;11064;47.102;15.452;2023-02-01T17:17:38;1.55;;;0.70;;
21804;SDS011;11064;47.102;15.452;2023-02-01T17:20:07;1.90;;;0.80;;
21804;SDS011;11064;47.102;15.452;2023-02-01T17:22:42;1.70;;;0.90;;
21804;SDS011;11064;47.102;15.452;2023-02-01T17:25:14;1.38;;;0.75;;
21804;SDS011;11064;47.102;15.452;2023-02-01T17:27:44;0.98;;;0.60;;
21804;SDS011;11064;47.102;15.452;2023-02-01T17:30:10;1.25;;;0.70;;
21804;SDS011;11064;47.102;15.452;2023-02-01T17:32:37;1.20;;;0.93;;
21804;SDS011;11064;47.102;15.452;2023-02-01T17:35:04;1.52;;;0.75;;
21804;SDS011;11064;47.102;15.452;2023-02-01T17:37:32;1.58;;;0.80;;
21804;SDS011;11064;47.102;15.452;2023-02-01T17:40:00;1.30;;;0.70;;
21804;SDS011;11064;47.102;15.452;2023-02-01T17:42:27;2.38;;;1.10;;
21804;SDS011;11064;47.102;15.452;2023-02-01T17:44:55;2.88;;;1.05;;
21804;SDS011;11064;47.102;15.452;2023-02-01T17:47:26;0.90;;;0.80;;
21804;SDS011;11064;47.102;15.452;2023-02-01T17:49:53;1.88;;;0.80;;
21804;SDS011;11064;47.102;15.452;2023-02-01T17:52:22;1.38;;;0.90;;
21804;SDS011;11064;47.102;15.452;2023-02-01T17:54:50;2.22;;;1.00;;
21804;SDS011;11064;47.102;15.452;2023-02-01T17:57:18;1.33;;;0.90;;
21804;SDS011;11064;47.102;15.452;2023-02-01T17:59:44;1.42;;;0.90;;
21804;SDS011;11064;47.102;15.452;2023-02-01T18:02:23;1.90;;;1.10;;
21804;SDS011;11064;47.102;15.452;2023-02-01T18:04:50;1.05;;;0.73;;
21804;SDS011;11064;47.102;15.452;2023-02-01T18:07:17;1.48;;;0.90;;
21804;SDS011;11064;47.102;15.452;2023-02-01T18:09:43;1.55;;;0.90;;
21804;SDS011;11064;47.102;15.452;2023-02-01T18:12:14;1.38;;;0.90;;
21804;SDS011;11064;47.102;15.452;2023-02-01T18:14:46;2.13;;;0.93;;
21804;SDS011;11064;47.102;15.452;2023-02-01T18:17:12;0.70;;;0.68;;
21804;SDS011;11064;47.102;15.452;2023-02-01T18:19:39;1.33;;;0.90;;
21804;SDS011;11064;47.102;15.452;2023-02-01T18:22:05;2.22;;;0.80;;
21804;SDS011;11064;47.102;15.452;2023-02-01T18:24:37;2.17;;;1.00;;
21804;SDS011;11064;47.102;15.452;2023-02-01T18:27:04;1.95;;;0.80;;
21804;SDS011;11064;47.102;15.452;2023-02-01T18:29:30;1.35;;;0.90;;
21804;SDS011;11064;47.102;15.452;2023-02-01T18:31:56;2.03;;;0.80;;
21804;SDS011;11064;47.102;15.452;2023-02-01T18:34:23;1.10;;;0.90;;
21804;SDS011;11064;47.102;15.452;2023-02-01T18:36:51;1.45;;;0.82;;
21804;SDS011;11064;47.102;15.452;2023-02-01T18:39:18;1.38;;;0.80;;
21804;SDS011;11064;47.102;15.452;2023-02-01T18:41:49;1.20;;;0.70;;
21804;SDS011;11064;47.102;15.452;2023-02-01T18:44:16;1.45;;;0.75;;
21804;SDS011;11064;47.102;15.452;2023-02-01T18:46:44;1.38;;;0.73;;
21804;SDS011;11064;47.102;15.452;2023-02-01T18:49:10;1.42;;;0.82;;
21804;SDS011;11064;47.102;15.452;2023-02-01T18:51:42;1.42;;;1.00;;
21804;SDS011;11064;47.102;15.452;2023-02-01T18:54:09;3.15;;;1.42;;
21804;SDS011;11064;47.102;15.452;2023-02-01T18:56:40;2.47;;;1.30;;
21804;SDS011;11064;47.102;15.452;2023-02-01T18:59:07;2.05;;;1.20;;
21804;SDS011;11064;47.102;15.452;2023-02-01T19:01:35;2.65;;;1.00;;
21804;SDS011;11064;47.102;15.452;2023-02-01T19:04:02;1.90;;;1.27;;
21804;SDS011;11064;47.102;15.452;2023-02-01T19:06:28;3.80;;;1.30;;
21804;SDS011;11064;47.102;15.452;2023-02-01T19:08:55;4.30;;;1.52;;
21804;SDS011;11064;47.102;15.452;2023-02-01T19:11:23;2.53;;;1.30;;
21804;SDS011;11064;47.102;15.452;2023-02-01T19:13:49;1.60;;;1.10;;
21804;SDS011;11064;47.102;15.452;2023-02-01T19:16:16;1.73;;;1.00;;
21804;SDS011;11064;47.102;15.452;2023-02-01T19:18:42;5.57;;;1.48;;
21804;SDS011;11064;47.102;15.452;2023-02-01T19:21:10;2.42;;;1.40;;
21804;SDS011;11064;47.102;15.452;2023-02-01T19:23:37;1.65;;;1.15;;
21804;SDS011;11064;47.102;15.452;2023-02-01T19:26:08;2.10;;;1.05;;
21804;SDS011;11064;47.102;15.452;2023-02-01T19:28:35;2.80;;;1.25;;
21804;SDS011;11064;47.102;15.452;2023-02-01T19:31:02;1.60;;;1.10;;
21804;SDS011;11064;47.102;15.452;2023-02-01T19:33:29;2.03;;;1.10;;
21804;SDS011;11064;47.102;15.452;2023-02-01T19:35:57;1.92;;;1.08;;
21804;SDS011;11064;47.102;15.452;2023-02-01T19:38:24;3.08;;;1.40;;
21804;SDS011;11064;47.102;15.452;2023-02-01T19:40:50;3.45;;;1.38;;
21804;SDS011;11064;47.102;15.452;2023-02-01T19:43:17;2.35;;;1.58;;
21804;SDS011;11064;47.102;15.452;2023-02-01T19:45:43;3.20;;;1.65;;
21804;SDS011;11064;47.102;15.452;2023-02-01T19:48:10;2.45;;;1.20;;
21804;SDS011;11064;47.102;15.452;2023-02-01T19:50:41;1.52;;;1.30;;
21804;SDS011;11064;47.102;15.452;2023-02-01T19:53:07;2.75;;;1.33;;
21804;SDS011;11064;47.102;15.452;2023-02-01T19:55:34;1.80;;;1.08;;
21804;SDS011;11064;47.102;15.452;2023-02-01T19:58:00;1.17;;;0.88;;
21804;SDS011;11064;47.102;15.452;2023-02-01T20:00:29;2.97;;;0.90;;
21804;SDS011;11064;47.102;15.452;2023-02-01T20:02:56;1.30;;;1.08;;
21804;SDS011;11064;47.102;15.452;2023-02-01T20:05:23;2.42;;;1.20;;
21804;SDS011;11064;47.102;15.452;2023-02-01T20:07:50;1.63;;;1.10;;
21804;SDS011;11064;47.102;15.452;2023-02-01T20:10:16;1.83;;;1.00;;
21804;SDS011;11064;47.102;15.452;2023-02-01T20:12:42;4.47;;;1.50;;
21804;SDS011;11064;47.102;15.452;2023-02-01T20:15:12;1.92;;;1.23;;
21804;SDS011;11064;47.102;15.452;2023-02-01T20:17:40;2.85;;;1.38;;
21804;SDS011;11064;47.102;15.452;2023-02-01T20:20:06;1.92;;;1.45;;
21804;SDS011;11064;47.102;15.452;2023-02-01T20:22:33;1.80;;;1.27;;
21804;SDS011;11064;47.102;15.452;2023-02-01T20:25:00;2.40;;;1.33;;
21804;SDS011;11064;47.102;15.452;2023-02-01T20:27:28;2.08;;;1.30;;
21804;SDS011;11064;47.102;15.452;2023-02-01T20:29:55;1.70;;;1.20;;
21804;SDS011;11064;47.102;15.452;2023-02-01T20:32:25;2.65;;;1.20;;
21804;SDS011;11064;47.102;15.452;2023-02-01T20:34:52;1.25;;;1.10;;
21804;SDS011;11064;47.102;15.452;2023-02-01T20:37:19;2.80;;;1.20;;
21804;SDS011;11064;47.102;15.452;2023-02-01T20:39:45;2.67;;;1.10;;
21804;SDS011;11064;47.102;15.452;2023-02-01T20:42:12;1.88;;;1.10;;
21804;SDS011;11064;47.102;15.452;2023-02-01T20:44:38;1.75;;;1.02;;
21804;SDS011;11064;47.102;15.452;2023-02-01T20:47:04;1.48;;;0.95;;
21804;SDS011;11064;47.102;15.452;2023-02-01T20:49:31;1.77;;;1.00;;
21804;SDS011;11064;47.102;15.452;2023-02-01T20:51:58;1.50;;;0.90;;
21804;SDS011;11064;47.102;15.452;2023-02-01T20:54:24;1.90;;;1.17;;
21804;SDS011;11064;47.102;15.452;2023-02-01T20:56:50;1.02;;;0.82;;
21804;SDS011;11064;47.102;15.452;2023-02-01T20:59:17;0.80;;;0.80;;
21804;SDS011;11064;47.102;15.452;2023-02-01T21:01:43;1.10;;;0.90;;
21804;SDS011;11064;47.102;15.452;2023-02-01T21:04:19;0.80;;;0.60;;
21804;SDS011;11064;47.102;15.452;2023-02-01T21:06:47;0.98;;;0.70;;
21804;SDS011;11064;47.102;15.452;2023-02-01T21:09:14;2.40;;;0.88;;
21804;SDS011;11064;47.102;15.452;2023-02-01T21:11:41;0.93;;;0.70;;
21804;SDS011;11064;47.102;15.452;2023-02-01T21:14:08;0.82;;;0.60;;
21804;SDS011;11064;47.102;15.452;2023-02-01T21:16:34;2.10;;;0.90;;
21804;SDS011;11064;47.102;15.452;2023-02-01T21:19:00;0.93;;;0.70;;
21804;SDS011;11064;47.102;15.452;2023-02-01T21:21:26;0.88;;;0.70;;
21804;SDS011;11064;47.102;15.452;2023-02-01T21:23:56;1.75;;;0.93;;
21804;SDS011;11064;47.102;15.452;2023-02-01T21:26:23;1.13;;;0.80;;
21804;SDS011;11064;47.102;15.452;2023-02-01T21:28:51;2.05;;;0.82;;
21804;SDS011;11064;47.102;15.452;2023-02-01T21:31:18;0.70;;;0.70;;
21804;SDS011;11064;47.102;15.452;2023-02-01T21:33:46;1.23;;;0.80;;
21804;SDS011;11064;47.102;15.452;2023-02-01T21:36:14;0.75;;;0.50;;
21804;SDS011;11064;47.102;15.452;2023-02-01T21:38:46;1.15;;;0.77;;
21804;SDS011;11064;47.102;15.452;2023-02-01T21:41:18;1.45;;;0.70;;
21804;SDS011;11064;47.102;15.452;2023-02-01T21:44:08;2.13;;;0.65;;
21804;SDS011;11064;47.102;15.452;2023-02-01T21:46:35;1.25;;;0.70;;
21804;SDS011;11064;47.102;15.452;2023-02-01T21:49:01;0.70;;;0.50;;
21804;SDS011;11064;47.102;15.452;2023-02-01T21:51:27;1.05;;;0.70;;
21804;SDS011;11064;47.102;15.452;2023-02-01T21:53:54;1.85;;;0.60;;
21804;SDS011;11064;47.102;15.452;2023-02-01T21:56:20;1.30;;;0.70;;
21804;SDS011;11064;47.102;15.452;2023-02-01T21:58:46;1.00;;;0.90;;
21804;SDS011;11064;47.102;15.452;2023-02-01T22:01:11;1.05;;;0.70;;
21804;SDS011;11064;47.102;15.452;2023-02-01T22:03:37;0.93;;;0.70;;